createdAt,value
2022-10-18T00:00:36.429Z,18.50
2022-10-18T00:03:22.813Z,18.60
2022-10-18T00:06:09.399Z,18.40
2022-10-18T00:08:55.090Z,18.20
2022-10-18T00:11:41.334Z,18.00
2022-10-18T00:14:27.338Z,17.80
2022-10-18T00:17:12.922Z,17.70
2022-10-18T00:19:58.294Z,17.80
2022-10-18T00:22:45.125Z,17.80
2022-10-18T00:25:30.838Z,17.70
2022-10-18T00:28:16.587Z,17.70
2022-10-18T00:31:18.063Z,17.70
2022-10-18T00:34:06.550Z,17.70
2022-10-18T00:36:52.050Z,17.70
2022-10-18T00:39:37.780Z,17.60
2022-10-18T00:42:29.744Z,17.60
2022-10-18T00:45:20.188Z,17.60
2022-10-18T00:48:05.880Z,17.50
2022-10-18T00:50:53.210Z,17.50
2022-10-18T00:53:40.006Z,17.50
2022-10-18T00:56:26.363Z,17.50
2022-10-18T00:59:15.428Z,17.40
2022-10-18T01:02:02.192Z,17.40
2022-10-18T01:04:48.510Z,17.50
2022-10-18T01:08:09.394Z,17.50
2022-10-18T01:10:58.175Z,17.40
2022-10-18T01:13:44.006Z,17.30
2022-10-18T01:17:05.789Z,16.90
2022-10-18T01:20:12.559Z,16.90
2022-10-18T01:23:35.493Z,17.00
2022-10-18T01:26:52.984Z,17.10
2022-10-18T01:30:08.129Z,17.10
2022-10-18T01:32:58.154Z,17.20
2022-10-18T01:35:46.004Z,17.40
2022-10-18T01:38:34.279Z,17.40
2022-10-18T01:41:22.642Z,17.50
2022-10-18T01:44:12.677Z,17.50
2022-10-18T01:46:59.630Z,17.40
2022-10-18T01:49:45.438Z,17.40
2022-10-18T01:52:31.568Z,17.40
2022-10-18T01:55:23.527Z,17.40
2022-10-18T01:58:26.118Z,17.40
2022-10-18T02:01:37.848Z,17.30
2022-10-18T02:04:26.261Z,17.30
2022-10-18T02:07:12.093Z,17.30
2022-10-18T02:10:20.636Z,17.30
2022-10-18T02:13:07.560Z,17.30
2022-10-18T02:15:57.893Z,17.20
2022-10-18T02:18:50.353Z,17.10
2022-10-18T02:21:37.923Z,17.10
2022-10-18T02:24:30.443Z,17.10
2022-10-18T02:27:16.121Z,17.00
2022-10-18T02:30:01.590Z,17.00
2022-10-18T02:33:11.574Z,16.90
2022-10-18T02:36:06.584Z,16.90
2022-10-18T02:38:58.847Z,16.90
2022-10-18T02:41:44.534Z,16.80
2022-10-18T02:44:30.090Z,16.80
2022-10-18T02:47:15.791Z,16.70
2022-10-18T02:50:01.320Z,16.70
2022-10-18T02:52:46.933Z,16.60
2022-10-18T02:55:32.512Z,16.50
2022-10-18T02:58:17.877Z,16.50
2022-10-18T03:01:03.785Z,16.40
2022-10-18T03:03:50.010Z,16.40
2022-10-18T03:06:35.909Z,16.40
2022-10-18T03:09:21.459Z,16.40
2022-10-18T03:12:07.626Z,16.40
2022-10-18T03:14:53.520Z,16.50
2022-10-18T03:17:39.100Z,16.50
2022-10-18T03:20:24.741Z,16.40
2022-10-18T03:23:10.536Z,16.50
2022-10-18T03:25:55.650Z,16.50
2022-10-18T03:28:41.191Z,16.50
2022-10-18T03:31:26.781Z,16.60
2022-10-18T03:34:12.265Z,16.70
2022-10-18T03:37:01.004Z,16.90
2022-10-18T03:39:51.031Z,17.40
2022-10-18T03:42:36.525Z,17.70
2022-10-18T03:45:22.197Z,17.90
2022-10-18T03:48:07.981Z,18.20
2022-10-18T03:50:53.751Z,18.30
2022-10-18T03:53:39.999Z,18.30
2022-10-18T03:56:25.932Z,18.40
2022-10-18T03:59:11.552Z,18.40
2022-10-18T04:01:57.558Z,18.40
2022-10-18T04:04:42.949Z,18.40
2022-10-18T04:07:28.548Z,18.40
2022-10-18T04:10:14.191Z,18.50
2022-10-18T04:12:59.788Z,18.40
2022-10-18T04:15:45.255Z,18.40
2022-10-18T04:18:30.843Z,18.40
2022-10-18T04:21:23.954Z,18.30
2022-10-18T04:24:10.081Z,18.40
2022-10-18T04:26:55.865Z,18.40
2022-10-18T04:29:41.335Z,18.40
2022-10-18T04:32:28.994Z,18.50
2022-10-18T04:35:15.361Z,18.50
2022-10-18T04:38:01.420Z,18.50
2022-10-18T04:40:47.366Z,18.40
2022-10-18T04:43:32.801Z,18.30
2022-10-18T04:46:18.444Z,18.20
2022-10-18T04:49:04.811Z,18.10
2022-10-18T04:51:51.610Z,18.10
2022-10-18T04:54:37.392Z,18.10
2022-10-18T04:57:23.267Z,18.10
2022-10-18T05:00:09.737Z,18.10
2022-10-18T05:02:58.601Z,18.10
2022-10-18T05:06:02.792Z,18.20
2022-10-18T05:08:49.621Z,18.20
2022-10-18T05:11:35.283Z,18.20
2022-10-18T05:14:20.918Z,18.20
2022-10-18T05:17:06.494Z,18.20
2022-10-18T05:19:52.225Z,18.10
2022-10-18T05:22:37.832Z,18.10
2022-10-18T05:25:23.628Z,18.10
2022-10-18T05:28:34.168Z,18.10
2022-10-18T05:31:17.048Z,18.10
2022-10-18T05:34:11.153Z,18.10
2022-10-18T05:36:56.879Z,18.20
2022-10-18T05:39:42.913Z,18.20
2022-10-18T05:42:28.535Z,18.30
2022-10-18T05:45:14.143Z,18.30
2022-10-18T05:48:03.344Z,18.40
2022-10-18T05:50:50.085Z,18.40
2022-10-18T05:53:37.509Z,18.50
2022-10-18T05:56:23.482Z,18.50
2022-10-18T05:59:12.304Z,18.40
2022-10-18T06:01:58.316Z,18.40
2022-10-18T06:04:43.796Z,18.30
2022-10-18T06:07:34.270Z,18.30
2022-10-18T06:10:20.495Z,18.40
2022-10-18T06:13:05.801Z,18.40
2022-10-18T06:15:55.148Z,18.40
2022-10-18T06:18:41.804Z,18.50
2022-10-18T06:21:27.915Z,18.60
2022-10-18T06:24:13.462Z,18.70
2022-10-18T06:26:59.446Z,18.80
2022-10-18T06:29:45.178Z,18.80
2022-10-18T06:32:30.689Z,18.90
2022-10-18T06:35:16.252Z,19.00
2022-10-18T06:38:01.991Z,19.10
2022-10-18T06:40:48.442Z,19.10
2022-10-18T06:43:34.472Z,19.10
2022-10-18T06:46:20.509Z,19.10
2022-10-18T06:49:06.027Z,19.20
2022-10-18T06:51:53.351Z,19.20
2022-10-18T06:54:38.702Z,19.30
2022-10-18T06:57:24.322Z,19.40
2022-10-18T07:00:10.522Z,19.40
2022-10-18T07:02:58.258Z,19.40
2022-10-18T07:05:44.068Z,19.40
2022-10-18T07:08:30.329Z,19.40
2022-10-18T07:11:18.642Z,19.50
2022-10-18T07:14:05.255Z,19.50
2022-10-18T07:16:50.976Z,19.50
2022-10-18T07:19:36.612Z,19.50
2022-10-18T07:22:22.982Z,19.60
2022-10-18T07:25:11.008Z,19.70
2022-10-18T07:27:57.107Z,19.70
2022-10-18T07:30:42.807Z,19.80
2022-10-18T07:33:29.425Z,19.90
2022-10-18T07:36:14.893Z,19.90
2022-10-18T07:39:00.471Z,19.90
2022-10-18T07:41:46.135Z,19.90
2022-10-18T07:44:31.366Z,20.00
2022-10-18T07:47:17.040Z,20.10
2022-10-18T07:50:02.562Z,20.10
2022-10-18T07:52:48.307Z,20.20
2022-10-18T07:55:33.879Z,20.20
2022-10-18T07:58:19.406Z,20.30
2022-10-18T08:01:06.734Z,20.30
2022-10-18T08:03:52.961Z,20.50
2022-10-18T08:06:38.671Z,20.60
2022-10-18T08:09:24.207Z,20.70
2022-10-18T08:12:09.877Z,20.80
2022-10-18T08:14:55.279Z,20.90
2022-10-18T08:17:40.933Z,20.90
2022-10-18T08:20:30.991Z,21.00
2022-10-18T08:23:17.081Z,21.00
2022-10-18T08:26:05.381Z,21.10
2022-10-18T08:29:10.386Z,21.00
2022-10-18T08:31:57.409Z,20.90
2022-10-18T08:34:42.800Z,20.90
2022-10-18T08:37:28.541Z,20.90
2022-10-18T08:40:15.093Z,20.90
2022-10-18T08:46:27.086Z,21.30
2022-10-18T08:49:37.192Z,21.60
2022-10-18T08:52:35.111Z,21.80
2022-10-18T08:55:40.048Z,21.60
2022-10-18T08:58:29.533Z,21.70
2022-10-18T09:01:17.970Z,22.00
2022-10-18T09:04:21.646Z,22.20
2022-10-18T09:07:45.100Z,22.20
2022-10-18T09:11:07.254Z,22.10
2022-10-18T09:14:03.390Z,22.00
2022-10-18T09:16:54.747Z,22.00
2022-10-18T09:20:23.586Z,22.30
2022-10-18T09:23:25.061Z,22.60
2022-10-18T09:26:19.455Z,23.00
2022-10-18T09:29:23.801Z,23.20
2022-10-18T09:32:31.106Z,23.40
2022-10-18T09:35:24.546Z,23.50
2022-10-18T09:38:13.151Z,23.70
2022-10-18T09:41:33.408Z,23.70
2022-10-18T09:44:35.165Z,23.70
2022-10-18T09:47:34.827Z,23.50
2022-10-18T09:50:24.220Z,23.40
2022-10-18T09:53:18.835Z,23.50
2022-10-18T09:56:40.935Z,23.40
2022-10-18T09:59:39.495Z,23.80
2022-10-18T10:02:25.424Z,24.20
2022-10-18T10:05:14.593Z,24.60
2022-10-18T10:08:02.119Z,25.00
2022-10-18T10:10:48.054Z,25.10
2022-10-18T10:13:33.679Z,24.90
2022-10-18T10:16:19.107Z,24.80
2022-10-18T10:19:04.831Z,24.70
2022-10-18T10:21:54.942Z,24.80
2022-10-18T10:24:48.463Z,24.70
2022-10-18T10:27:43.449Z,24.20
2022-10-18T10:30:31.852Z,24.10
2022-10-18T10:33:35.835Z,24.30
2022-10-18T10:36:21.947Z,24.60
2022-10-18T10:39:18.340Z,24.80
2022-10-18T10:42:05.848Z,25.00
2022-10-18T10:44:54.482Z,25.20
2022-10-18T10:47:40.589Z,25.40
2022-10-18T10:50:28.305Z,25.50
2022-10-18T10:53:36.170Z,25.60
2022-10-18T10:56:23.839Z,25.70
2022-10-18T10:59:17.979Z,25.80
2022-10-18T11:02:30.656Z,26.00
2022-10-18T11:05:27.018Z,26.10
2022-10-18T11:08:25.516Z,26.30
2022-10-18T11:11:28.545Z,26.40
2022-10-18T11:14:26.858Z,26.50
2022-10-18T11:17:25.277Z,26.70
2022-10-18T11:20:17.380Z,26.70
2022-10-18T11:23:11.385Z,26.90
2022-10-18T11:26:13.122Z,27.20
2022-10-18T11:29:43.666Z,27.50
2022-10-18T11:32:55.387Z,27.80
2022-10-18T11:35:59.116Z,28.20
2022-10-18T11:39:01.760Z,28.50
2022-10-18T11:41:53.612Z,29.20
2022-10-18T11:44:50.318Z,30.00
2022-10-18T11:47:55.109Z,31.00
2022-10-18T11:50:53.570Z,32.50
2022-10-18T11:53:56.117Z,34.20
2022-10-18T11:57:01.952Z,35.80
2022-10-18T12:00:21.274Z,37.30
2022-10-18T12:03:18.846Z,38.30
2022-10-18T12:06:12.346Z,39.20
2022-10-18T12:09:02.175Z,39.80
2022-10-18T12:11:55.772Z,40.50
2022-10-18T12:14:55.656Z,39.70
2022-10-18T12:17:50.115Z,39.60
2022-10-18T12:20:45.257Z,38.50
2022-10-18T12:23:30.814Z,38.20
2022-10-18T12:26:17.613Z,39.00
2022-10-18T12:29:25.918Z,39.10
2022-10-18T12:32:16.288Z,36.70
2022-10-18T12:35:09.935Z,33.90
2022-10-18T12:38:04.720Z,32.20
2022-10-18T12:40:53.331Z,33.20
2022-10-18T12:43:38.782Z,33.60
2022-10-18T12:46:24.590Z,34.60
2022-10-18T12:49:12.736Z,33.90
2022-10-18T12:52:07.178Z,32.20
2022-10-18T12:55:19.338Z,30.80
2022-10-18T12:58:21.799Z,30.50
2022-10-18T13:01:07.504Z,30.90
2022-10-18T13:03:56.586Z,31.70
2022-10-18T13:07:00.889Z,32.20
2022-10-18T13:10:15.030Z,32.90
2022-10-18T13:13:39.262Z,33.20
2022-10-18T13:17:04.076Z,33.50
2022-10-18T13:20:24.155Z,33.40
2022-10-18T13:23:07.781Z,33.40
2022-10-18T13:26:31.961Z,33.30
2022-10-18T13:29:50.558Z,33.80
2022-10-18T13:32:57.331Z,34.00
2022-10-18T13:35:55.016Z,34.10
2022-10-18T13:38:57.266Z,34.30
2022-10-18T13:41:43.311Z,34.30
2022-10-18T13:44:43.586Z,34.00
2022-10-18T13:47:37.340Z,33.50
2022-10-18T13:50:38.186Z,33.40
2022-10-18T13:53:57.887Z,33.40
2022-10-18T13:57:25.626Z,33.40
2022-10-18T14:00:20.516Z,33.10
2022-10-18T14:03:55.103Z,32.90
2022-10-18T14:06:40.688Z,32.90
2022-10-18T14:09:43.522Z,33.00
2022-10-18T14:12:38.147Z,32.80
2022-10-18T14:15:26.529Z,32.60
2022-10-18T14:18:18.267Z,32.60
2022-10-18T14:21:21.766Z,32.40
2022-10-18T14:24:19.122Z,32.50
2022-10-18T14:27:19.785Z,32.60
2022-10-18T14:30:15.911Z,32.80
2022-10-18T14:33:01.663Z,32.90
2022-10-18T14:36:03.706Z,33.00
2022-10-18T14:38:58.481Z,32.80
2022-10-18T14:41:55.934Z,32.20
2022-10-18T14:44:41.734Z,31.00
2022-10-18T14:47:31.337Z,30.00
2022-10-18T14:50:30.662Z,29.10
2022-10-18T14:53:25.070Z,28.30
2022-10-18T14:56:22.862Z,27.70
2022-10-18T14:59:25.067Z,27.20
2022-10-18T15:02:16.033Z,26.90
2022-10-18T15:05:20.839Z,26.60
2022-10-18T15:08:06.640Z,26.40
2022-10-18T15:10:52.787Z,26.20
2022-10-18T15:14:08.799Z,26.00
2022-10-18T15:17:01.771Z,25.90
2022-10-18T15:19:59.334Z,25.80
2022-10-18T15:22:47.872Z,25.60
2022-10-18T15:25:35.865Z,25.30
2022-10-18T15:28:36.239Z,25.20
2022-10-18T15:31:26.722Z,25.00
2022-10-18T15:34:18.782Z,24.80
2022-10-18T15:37:17.903Z,24.70
2022-10-18T15:40:37.056Z,24.50
2022-10-18T15:43:28.455Z,24.40
2022-10-18T15:46:31.151Z,24.30
2022-10-18T15:49:44.683Z,24.20
2022-10-18T15:52:35.226Z,24.00
2022-10-18T15:55:33.706Z,23.90
2022-10-18T15:58:29.961Z,23.80
2022-10-18T16:01:20.335Z,23.60
2022-10-18T16:04:18.560Z,23.50
2022-10-18T16:07:04.266Z,23.40
2022-10-18T16:09:49.903Z,23.20
2022-10-18T16:12:35.364Z,23.10
2022-10-18T16:15:21.020Z,23.00
2022-10-18T16:18:07.141Z,22.80
2022-10-18T16:20:53.188Z,22.70
2022-10-18T16:23:39.266Z,22.60
2022-10-18T16:26:26.226Z,22.50
2022-10-18T16:29:15.816Z,22.30
2022-10-18T16:32:02.975Z,22.20
2022-10-18T16:34:48.840Z,22.00
2022-10-18T16:37:34.498Z,21.80
2022-10-18T16:40:26.112Z,21.70
2022-10-18T16:43:11.826Z,21.60
2022-10-18T16:45:58.059Z,21.50
2022-10-18T16:48:44.115Z,21.40
2022-10-18T16:51:29.868Z,21.30
2022-10-18T16:54:15.510Z,21.20
2022-10-18T16:57:02.761Z,21.20
2022-10-18T16:59:48.987Z,21.20
2022-10-18T17:02:36.671Z,21.10
2022-10-18T17:05:23.924Z,21.10
2022-10-18T17:08:32.708Z,21.00
2022-10-18T17:11:21.343Z,20.90
2022-10-18T17:14:06.802Z,20.70
2022-10-18T17:16:55.911Z,20.60
2022-10-18T17:19:42.900Z,20.30
2022-10-18T17:22:28.330Z,20.00
2022-10-18T17:25:14.568Z,19.90
2022-10-18T17:27:59.887Z,19.90
2022-10-18T17:30:46.378Z,19.90
2022-10-18T17:33:32.630Z,19.90
2022-10-18T17:36:18.889Z,19.80
2022-10-18T17:39:04.726Z,19.60
2022-10-18T17:41:50.976Z,19.70
2022-10-18T17:44:36.920Z,19.50
2022-10-18T17:47:24.068Z,19.50
2022-10-18T17:50:10.396Z,19.40
2022-10-18T17:52:57.315Z,19.40
2022-10-18T17:55:42.845Z,19.30
2022-10-18T17:58:28.746Z,19.20
2022-10-18T18:01:19.756Z,19.10
2022-10-18T18:04:06.657Z,19.10
2022-10-18T18:06:52.947Z,19.20
2022-10-18T18:09:38.870Z,19.30
2022-10-18T18:12:25.965Z,19.30
2022-10-18T18:15:13.210Z,19.40
2022-10-18T18:17:59.077Z,19.40
2022-10-18T18:20:54.542Z,19.30
2022-10-18T18:23:41.591Z,19.30
2022-10-18T18:26:30.589Z,19.20
2022-10-18T18:29:16.840Z,19.10
2022-10-18T18:32:03.397Z,18.90
2022-10-18T18:34:51.927Z,18.80
2022-10-18T18:37:38.341Z,18.70
2022-10-18T18:40:24.547Z,18.80
2022-10-18T18:43:22.675Z,18.80
2022-10-18T18:46:10.663Z,18.70
2022-10-18T18:48:58.069Z,18.70
2022-10-18T18:51:44.468Z,18.70
2022-10-18T18:54:32.077Z,18.70
2022-10-18T18:57:17.947Z,18.70
2022-10-18T19:00:04.599Z,18.70
2022-10-18T19:02:51.138Z,18.70
2022-10-18T19:05:38.415Z,18.70
2022-10-18T19:08:24.422Z,18.70
2022-10-18T19:11:16.007Z,18.60
2022-10-18T19:14:04.463Z,18.50
2022-10-18T19:16:52.402Z,18.40
2022-10-18T19:19:40.834Z,18.30
2022-10-18T19:22:26.890Z,18.20
2022-10-18T19:25:13.813Z,18.20
2022-10-18T19:27:59.650Z,18.10
2022-10-18T19:30:50.026Z,18.20
2022-10-18T19:33:48.471Z,18.20
2022-10-18T19:36:44.955Z,18.10
2022-10-18T19:39:33.548Z,18.10
2022-10-18T19:42:31.526Z,18.10
2022-10-18T19:45:17.502Z,18.20
2022-10-18T19:48:03.567Z,18.20
2022-10-18T19:50:50.854Z,18.20
2022-10-18T19:53:37.361Z,18.20
2022-10-18T19:56:25.088Z,18.20
2022-10-18T19:59:12.324Z,17.50
2022-10-18T20:02:00.516Z,18.10
2022-10-18T20:04:46.446Z,18.00
2022-10-18T20:07:32.948Z,17.90
2022-10-18T20:10:18.677Z,17.80
2022-10-18T20:13:04.102Z,17.80
2022-10-18T20:15:51.350Z,17.80
2022-10-18T20:18:38.071Z,17.80
2022-10-18T20:21:26.503Z,17.80
2022-10-18T20:24:13.153Z,17.80
2022-10-18T20:26:58.585Z,17.80
2022-10-18T20:29:44.269Z,17.80
2022-10-18T20:32:32.267Z,17.80
2022-10-18T20:35:18.024Z,17.70
2022-10-18T20:38:05.218Z,17.70
2022-10-18T20:40:51.396Z,17.70
2022-10-18T20:43:37.783Z,17.70
2022-10-18T20:46:24.430Z,17.60
2022-10-18T20:49:14.514Z,17.50
2022-10-18T20:52:00.425Z,17.40
2022-10-18T20:54:46.178Z,17.30
2022-10-18T20:57:34.281Z,17.30
2022-10-18T21:00:22.329Z,17.20
2022-10-18T21:03:07.928Z,17.10
2022-10-18T21:05:54.079Z,17.00
2022-10-18T21:08:41.176Z,17.00
2022-10-18T21:11:29.196Z,16.90
2022-10-18T21:14:18.758Z,16.90
2022-10-18T21:17:05.351Z,16.90
2022-10-18T21:19:50.992Z,16.80
2022-10-18T21:22:36.608Z,16.80
2022-10-18T21:25:22.443Z,16.70
2022-10-18T21:28:08.619Z,16.70
2022-10-18T21:30:54.705Z,16.70
2022-10-18T21:33:42.120Z,16.70
2022-10-18T21:36:32.017Z,16.60
2022-10-18T21:39:21.063Z,16.50
2022-10-18T21:42:07.085Z,16.50
2022-10-18T21:44:52.651Z,16.40
2022-10-18T21:47:38.102Z,16.40
2022-10-18T21:50:23.642Z,16.30
2022-10-18T21:53:09.006Z,16.20
2022-10-18T21:55:54.459Z,16.20
2022-10-18T21:58:41.721Z,16.20
2022-10-18T22:01:32.689Z,16.20
2022-10-18T22:04:23.548Z,16.10
2022-10-18T22:07:09.022Z,16.10
2022-10-18T22:09:55.244Z,16.00
2022-10-18T22:12:40.727Z,16.00
2022-10-18T22:15:26.413Z,15.90
2022-10-18T22:18:12.333Z,15.80
2022-10-18T22:21:00.329Z,15.80
2022-10-18T22:23:50.595Z,15.80
2022-10-18T22:26:39.206Z,15.70
2022-10-18T22:29:25.133Z,15.70
2022-10-18T22:32:10.664Z,15.70
2022-10-18T22:34:56.321Z,15.70
2022-10-18T22:37:42.619Z,15.70
2022-10-18T22:40:28.747Z,15.70
2022-10-18T22:43:14.708Z,15.60
2022-10-18T22:46:12.425Z,15.70
2022-10-18T22:48:57.650Z,15.60
2022-10-18T22:51:43.323Z,15.70
2022-10-18T22:54:29.042Z,15.70
2022-10-18T22:57:14.612Z,15.70
2022-10-18T23:00:00.244Z,15.70
2022-10-18T23:02:48.419Z,15.70
2022-10-18T23:05:39.085Z,15.70
2022-10-18T23:08:25.536Z,15.70
2022-10-18T23:11:11.060Z,15.70
2022-10-18T23:13:57.167Z,15.70
2022-10-18T23:16:43.481Z,15.70
2022-10-18T23:19:29.023Z,15.70
2022-10-18T23:22:16.816Z,15.70
2022-10-18T23:25:02.575Z,15.80
2022-10-18T23:27:48.184Z,15.70
2022-10-18T23:30:33.946Z,15.70
2022-10-18T23:33:20.271Z,15.60
2022-10-18T23:36:08.553Z,15.50
2022-10-18T23:38:54.214Z,15.50
2022-10-18T23:41:40.470Z,15.40
2022-10-18T23:44:26.269Z,15.40
2022-10-18T23:47:11.732Z,15.40
2022-10-18T23:49:58.871Z,15.40
2022-10-18T23:52:44.698Z,15.40
2022-10-18T23:55:30.374Z,15.40
2022-10-18T23:58:15.973Z,15.40
